Lakeridge, Washington
Current Conditions -  °F | °C
As of 12:23 AM on Thursday 18 Dec 2014 (Local Time) from KTCM Reporting Station
Light Rain Light Rain  
Wind Chill: 43°   Ceiling: 1400
Heat Index: 43°   Visibility: 7mi
Dew Point: 43°   Wind: 3mph
Humidity: 100%   Direction: 190°S
Pressure: 29.93"   Gusts: NA
Location:  47.1874°N, 122.164°W
Report Text: KTCM 180823Z AUTO 19003KT 7SM -RA SCT006 BKN014 OVC020 06/06 A2993 RMK AO2 CIG 006V015 $
Loading
Personal Weather Stations






























Interactive Weather Map New forecast layout! Learn more

10-Day Weather Forecast

Advertisements
Track Severe Weather on mobile